• Join FlightAware (Why Join?)
  • Login
  • US Flag 
06:01PM EDT


 

Airport Tracker/Info


-or-


 

Live Flight TrackerFlight Track Log ✈ CTL21 ✈ 18-Jun-2013 ✈ KAZO - KBKL

Flight Track Log - Related Links

Times and Time Zones

All times are in EDT time to prevent confusion due to time zone crossing. See the CTL21 flight status page for this flight to view local times or setup timezone preferences in your user account.

Time Position Orientation Groundspeed Altitude Reporting Facility
EDT Latitude Longitude Course Direction KTS MPH feet Rate Location/Type
05:12PM 42.2475 -85.4133 120° Southeast 112 129 5,200  Level Chicago Center
05:13PM 42.2281 -85.3697 121° Southeast 112 129 6,200 840 Climbing Chicago Center
05:14PM 42.1817 -85.2379 103° East  Level Estimated
05:14PM 42.2103 -85.3256 119° Southeast 126 145 7,000  Level Chicago Center
05:15PM 42.1710 -85.1752 103° East  Level Estimated
05:15PM 42.1922 -85.2794 118° Southeast 135 155 7,700  Level Chicago Center
05:16PM 42.1603 -85.1126 103° East  Level Estimated
05:16PM 42.1739 -85.2314 117° Southeast 142 163 8,400  Level Chicago Center
05:17PM 42.1533 -85.1847 121° Southeast 143 165 9,000 240 Climbing Chicago Center
05:18PM 42.1306 -85.1347 122° Southeast 151 174 9,000  Level Chicago Center
05:19PM 42.1053 -85.0778 121° Southeast 169 194 9,000  Level Chicago Center
05:20PM 42.0761 -85.0092 120° Southeast 173 199 9,100  Climbing Chicago Center
05:21PM 42.0517 -84.9531 120° Southeast 174 200 9,000  Descending Chicago Center
05:22PM 42.0278 -84.8978 120° Southeast 171 197 9,100  Climbing Chicago Center
05:23PM 42.0036 -84.8436 121° Southeast 170 196 9,100  Level Chicago Center
05:24PM 41.9781 -84.7875 121° Southeast 173 199 9,100  Level Chicago Center
05:25PM 41.9519 -84.7308 122° Southeast 176 203 9,100  Level Chicago Center
05:26PM 41.9222 -84.6644 121° Southeast 174 200 9,100  Level Chicago Center
05:27PM 41.8969 -84.6094 122° Southeast 173 199 9,100  Level Chicago Center
05:28PM 41.8714 -84.5536 122° Southeast 174 200 9,100  Level Chicago Center
05:29PM 41.8461 -84.4964 121° Southeast 176 203 9,100  Level Chicago Center
05:30PM 41.8200 -84.4400 122° Southeast 177 204 9,100  Level Chicago Center
05:31PM 41.7947 -84.3847 122° Southeast 175 201 9,100  Level Chicago Center
05:32PM 41.7656 -84.3183 120° Southeast 173 199 9,100  Level Chicago Center
05:33PM 41.7406 -84.2642 122° Southeast 172 198 9,100  Level Chicago Center
05:34PM 41.7139 -84.2092 123° Southeast 173 199 9,100 -60 Level Chicago Center
05:36PM 41.6901 -84.1569 121° Southeast  Level FlightAware Approximate
05:43PM 41.5285 -83.8036 121° Southeast  Level FlightAware Approximate
05:44PM 41.5054 -83.7532 122° Southeast  Level FlightAware Approximate
05:45PM 41.4822 -83.7029 122° Southeast  Level FlightAware Approximate
05:46PM 41.4590 -83.6527 122° Southeast  Level FlightAware Approximate
05:47PM 41.4492 -83.5971 92° East  Level FlightAware Approximate
05:48PM 41.4478 -83.5381 92° East  Level FlightAware Approximate
05:49PM 41.4464 -83.4791 92° East  Level FlightAware Approximate
05:49PM 41.5928 -83.2736 59° Northeast 171 197 9,000  Level Cleveland Center
05:50PM 41.4449 -83.4201 92° East  Level FlightAware Approximate
05:50PM 41.5919 -83.2125 91° East 171 197 9,000  Level Cleveland Center
05:51PM 41.4435 -83.3612 92° East  Level FlightAware Approximate
05:51PM 41.5894 -83.1458 93° East 171 197 8,900  Level Cleveland Center
05:52PM 41.4420 -83.3022 92° East  Level FlightAware Approximate
05:52PM 41.5844 -83.0817 96° East 178 205 9,000  Level Cleveland Center
05:53PM 41.4404 -83.2432 92° East  Level FlightAware Approximate
05:53PM 41.5817 -83.0178 93° East 173 199 8,900  Level Cleveland Center
05:54PM 41.4389 -83.1842 92° East  Level FlightAware Approximate
05:54PM 41.5767 -82.9564 96° East 173 199 9,000  Level Cleveland Center
05:55PM 41.4622 -83.1319 59° Northeast  Level FlightAware Approximate
05:55PM 41.5756 -82.9175 92° East 173 199 9,000  Level Cleveland Center
05:56PM 41.5728 -82.8453 93° East 175 201 9,100  Climbing Cleveland Center
05:57PM 41.5678 -82.7811 96° East 176 203 9,100  Level Cleveland Center
05:58PM 41.5647 -82.7172 94° East 174 200 9,100  Level Cleveland Center
05:59PM 41.5619 -82.6506 93° East 176 203 9,100 -60 Level Cleveland Center
06:00PM 41.5567 -82.5894 97° East 174 200 9,000  Descending Cleveland Center
06:01PM 41.5536 -82.5283 94° East 174 200 9,100 -240 Climbing Cleveland Center
06:02PM 41.5506 -82.4617 93° East 179 206 8,600 -600 Descending Cleveland Center
06:03PM 41.5475 -82.3867 93° East 201 231 7,900 -840 Descending Cleveland Center
06:04PM 41.5444 -82.3144 93° East 205 236 7,000 -840 Descending Cleveland Center
06:05PM 41.5414 -82.2367 93° East 195 224 6,200 -720 Descending Cleveland Center
06:06PM 41.5486 -82.1675 82° East 181 208 5,600 -600 Descending Cleveland Center
06:07PM 41.5622 -82.1039 74° East 181 208 5,000 -720 Descending Cleveland Center
06:08PM 41.5756 -82.0375 75° East 183 211 4,200 -840 Descending Cleveland Center
06:09PM 41.5931 -81.9742 70° East 178 205 3,400 -1,140 Descending Cleveland Center
06:10PM 41.6000 -81.9075 82° East 192 221 1,900 -900 Descending Cleveland Center
06:11PM 41.5736 -81.8544 124° Southeast 166 191 1,600 -180 Descending Cleveland Center
06:12PM 41.5408 -81.8039 131° Southeast 146 168 1,600  Level Cleveland Center
06:13PM 41.5244 -81.7619 118° Southeast 126 145 1,700 -240 Climbing Cleveland Center
06:15PM 41.5103 -81.7172 113° Southeast 105 121 1,200 -480 Descending Cleveland Center
06:16PM 41.5175 -81.6833 90° East  Level Estimated
06:23PM 41.5175 -81.6833 90° East  Level Estimated